Flight Track Log - Related Links

Times and Time Zones

All times are in EDT time to prevent confusion due to time zone crossing. See the N37JT flight status page for this flight to view local times or setup timezone preferences in your user account.

Time Position Orientation Groundspeed Altitude Reporting Facility
EDT Latitude Longitude Course Direction KTS MPH feet Rate Location/Type
Fri 07:49:00 AM 40.8000 -74.7500 272° West 172 198 3,700  Level New York TRACON
Fri 07:50:00 AM 40.8014 -74.7977 272° West  Level Estimated
Fri 07:57:00 AM 40.8106 -75.1318 272° West  Level Estimated
Fri 07:58:00 AM 40.8118 -75.1795 272° West  Level Estimated
Fri 07:59:00 AM 40.8130 -75.2272 272° West  Level Estimated
Fri 08:00:00 AM 40.8142 -75.2749 272° West  Level Estimated
Fri 08:01:00 AM 40.8154 -75.3227 272° West  Level Estimated
Fri 08:02:00 AM 40.8165 -75.3704 272° West  Level Estimated
Fri 08:03:00 AM 40.8176 -75.4181 272° West  Level Estimated
Fri 08:04:00 AM 40.8187 -75.4659 272° West  Level Estimated
Fri 08:05:00 AM 40.8198 -75.5136 272° West  Level Estimated
Fri 08:06:00 AM 40.8209 -75.5614 272° West  Level Estimated
Fri 08:07:00 AM 40.8220 -75.6091 272° West  Level Estimated
Fri 08:08:00 AM 40.8230 -75.6568 272° West  Level Estimated
Fri 08:09:00 AM 40.8240 -75.7046 272° West  Level Estimated
Fri 08:10:00 AM 40.8250 -75.7523 272° West  Level Estimated
Fri 08:11:00 AM 40.8260 -75.8001 272° West  Level Estimated
Fri 08:12:00 AM 40.8269 -75.8478 272° West  Level Estimated
Fri 08:13:00 AM 40.8279 -75.8956 271° West  Level Estimated
Fri 08:14:00 AM 40.8288 -75.9433 271° West  Level Estimated
Fri 08:15:00 AM 40.8297 -75.9911 271° West  Level Estimated
Fri 08:16:00 AM 40.8306 -76.0388 271° West  Level Estimated
Fri 08:17:00 AM 40.8314 -76.0866 271° West  Level Estimated
Fri 08:18:00 AM 40.8323 -76.1344 271° West  Level Estimated
Fri 08:19:00 AM 40.8331 -76.1821 271° West  Level Estimated
Fri 08:20:00 AM 40.8339 -76.2299 271° West  Level Estimated
Fri 08:21:00 AM 40.8347 -76.2776 271° West  Level Estimated
Fri 08:21:35 AM 40.8447 -76.9350 271° West 184 212 4,500  Level New York Center
Fri 08:22:00 AM 40.8354 -76.3254 271° West  Level Estimated
Fri 08:22:35 AM 40.8456 -76.9953 271° West 184 212 4,500  Level New York Center
Fri 08:23:00 AM 40.8362 -76.3732 271° West  Level Estimated
Fri 08:23:33 AM 40.8442 -77.0611 268° West 184 212 4,500  Level New York Center
Fri 08:24:00 AM 40.8369 -76.4209 271° West  Level Estimated
Fri 08:24:33 AM 40.8469 -77.1272 273° West 184 212 4,500  Level New York Center
Fri 08:25:00 AM 40.8376 -76.4687 271° West  Level Estimated
Fri 08:25:33 AM 40.8456 -77.1931 268° West 184 212 4,500  Level New York Center
Fri 08:26:00 AM 40.8383 -76.5164 271° West  Level Estimated
Fri 08:26:35 AM 40.8461 -77.2589 271° West 179 206 4,500  Level New York Center
Fri 08:27:33 AM 40.8467 -77.3247 271° West 179 206 4,500  Level New York Center
Fri 08:28:33 AM 40.8494 -77.3881 273° West 184 212 4,500  Level New York Center
Fri 08:29:33 AM 40.8478 -77.4539 268° West 184 212 4,500  Level New York Center
Fri 08:30:33 AM 40.8481 -77.5197 270° West 184 212 4,500 -98 Level New York Center
Fri 08:31:35 AM 40.8506 -77.5858 273° West 179 206 4,300 -194 Descending New York Center
Fri 08:33:00 AM 40.8503 -77.6535 270° West  Level Estimated
Fri 08:40:00 AM 40.8333 -77.8333 North  Level FlightAware Approximate
Fri 08:41:00 AM 40.8493 -77.8487 North  Level Estimated
Fri 08:42:00 AM 40.8493 -77.8487 North  Level Estimated
Fri 08:43:00 AM 40.8493 -77.8487 North  Level Estimated
Fri 08:44:00 AM 40.8493 -77.8487 North  Level Estimated
Fri 08:45:00 AM 40.8493 -77.8487 North  Level Estimated
Fri 08:46:00 AM 40.8493 -77.8487 North  Level Estimated
Fri 08:47:00 AM 40.8493 -77.8487 North  Level Estimated
Fri 08:48:00 AM 40.8493 -77.8487 North  Level Estimated
Fri 08:49:00 AM 40.8493 -77.8487 North  Level Estimated
Fri 08:50:00 AM 40.8493 -77.8487 North  Level Estimated
Fri 08:51:00 AM 40.8493 -77.8487 North  Level Estimated
Fri 08:52:00 AM 40.8493 -77.8487 North  Level Estimated
Fri 08:53:00 AM 40.8493 -77.8487 North  Level Estimated
Fri 08:54:00 AM 40.8493 -77.8487 North  Level Estimated
Fri 08:55:00 AM 40.8493 -77.8487 North  Level Estimated
Fri 08:56:00 AM 40.8493 -77.8487 North  Level Estimated
Fri 08:57:00 AM 40.8493 -77.8487 North  Level Estimated
Fri 08:58:00 AM 40.8493 -77.8487 North  Level Estimated
Fri 08:59:00 AM 40.8493 -77.8487 North  Level Estimated
Fri 09:00:00 AM 40.8493 -77.8487 North  Level Estimated
Fri 09:01:00 AM 40.8493 -77.8487 North  Level Estimated
Fri 09:02:00 AM 40.8493 -77.8487 North  Level Estimated
Fri 09:03:00 AM 40.8493 -77.8487 North  Level Estimated
Fri 09:04:00 AM 40.8493 -77.8487 North  Level Estimated
Fri 09:05:00 AM 40.8493 -77.8487 North  Level Estimated
Fri 09:06:00 AM 40.8493 -77.8487 North  Level Estimated
Fri 09:07:00 AM 40.8493 -77.8487 North  Level Estimated
Fri 09:08:00 AM 40.8493 -77.8487 North  Level Estimated
Fri 09:09:00 AM 40.8493 -77.8487 North  Level Estimated
Fri 09:10:00 AM 40.8493 -77.8487 North  Level Estimated
Fri 09:11:00 AM 40.8493 -77.8487 North  Level Estimated
Fri 09:12:00 AM 40.8493 -77.8487 North  Level Estimated
Fri 09:13:00 AM 40.8493 -77.8487 North  Level Estimated
Fri 09:14:00 AM 40.8493 -77.8487 North  Level Estimated
Fri 09:15:00 AM 40.8493 -77.8487 North  Level Estimated
Fri 09:16:00 AM 40.8493 -77.8487 North  Level Estimated
Fri 09:17:00 AM 40.8493 -77.8487 North  Level Estimated
Fri 09:18:00 AM 40.8493 -77.8487 North  Level Estimated
Fri 09:19:00 AM 40.8493 -77.8487 North  Level Estimated
Fri 09:20:00 AM 40.8493 -77.8487 North  Level Estimated

Login

Don't have an account? Register now (free) for customized features, flight alerts, and more!